Dunkeld, United Kingdom
Current Conditions -  °F | °C
As of 8:20 PM on Sunday 19 Oct 2014 (Local Time) from EGPN Reporting Station
Few Clouds Few Clouds  
Wind Chill: 52°   Ceiling: Unl
Heat Index: 52°   Visibility: 6mi
Dew Point: 48°   Wind: 20mph
Humidity: 88%   Direction: 250°WSW
Pressure: 29.53"   Gusts: NA
Location:  56.56°N, 3.58°W
Report Text: EGPN 191920Z 25017KT 9999 FEW032 11/09 Q1000
Loading
Personal Weather Stations






























Interactive Weather Map
Tropical Storm Tracking
New forecast layout! Learn more

10-Day Weather Forecast

Advertisements
Track Severe Weather on mobile